Sweetwater, North Carolina
Current Conditions -  °F | °C
As of 2:15 AM on Wednesday 22 Oct 2014 (Local Time) from KTNB Reporting Station
Broken Clouds Broken Clouds  
Wind Chill: 36°   Ceiling: 2300
Heat Index: 42°   Visibility: 10mi
Dew Point: 33°   Wind: 9mph
Humidity: 72%   Direction: 310°NW
Pressure: 30.01"   Gusts: 18mph
Location:  36.2666°N, 81.8431°W
Report Text: KTNB 220615Z AUTO 31008G16KT 10SM BKN023 05/01 A3001 RMK AO2 T00540008
Loading
Personal Weather Stations






























Interactive Weather Map
Tropical Storm Tracking
New forecast layout! Learn more

10-Day Weather Forecast

Advertisements
Track Severe Weather on mobile